createdAt,value
2017-11-05T00:06:04.330Z,77.69
2017-11-05T00:08:30.099Z,77.65
2017-11-05T00:11:19.819Z,77.17
2017-11-05T00:14:17.626Z,77.27
2017-11-05T00:30:09.687Z,76.61
2017-11-05T00:32:59.335Z,76.47
2017-11-05T00:35:56.295Z,76.66
2017-11-05T00:55:05.065Z,76.27
2017-11-05T00:58:02.925Z,76.32
2017-11-05T01:01:00.579Z,76.54
2017-11-05T01:03:58.221Z,77.04
2017-11-05T01:06:55.781Z,77.61
2017-11-05T01:09:53.626Z,78.08
2017-11-05T01:15:41.629Z,79.17
2017-11-05T01:35:16.306Z,82.06
2017-11-05T01:37:42.095Z,81.68
2017-11-05T01:40:31.307Z,81.69
2017-11-05T01:59:44.186Z,83.17
2017-11-05T02:02:33.071Z,83.82
2017-11-05T02:05:30.318Z,83.27
2017-11-05T02:21:20.915Z,83.80
2017-11-05T02:24:10.263Z,84.09
2017-11-05T02:27:08.099Z,83.76
2017-11-05T02:30:05.349Z,83.91
2017-11-05T02:33:02.147Z,83.60
2017-11-05T02:35:59.081Z,83.59
2017-11-05T02:38:56.865Z,83.37
2017-11-05T02:44:43.440Z,83.02
2017-11-05T02:47:32.411Z,83.22
2017-11-05T02:50:29.782Z,83.07
2017-11-05T02:53:27.545Z,82.75
2017-11-05T02:56:25.480Z,82.49
2017-11-05T02:59:22.742Z,82.50
2017-11-05T03:02:20.761Z,82.92
2017-11-05T03:05:17.416Z,83.45
2017-11-05T03:07:43.214Z,83.92
2017-11-05T03:10:32.304Z,83.95
2017-11-05T03:29:45.016Z,84.30
2017-11-05T03:32:34.689Z,82.83
2017-11-05T03:35:31.542Z,82.77
2017-11-05T03:38:29.296Z,82.28
2017-11-05T03:41:26.671Z,82.43
2017-11-05T03:44:24.218Z,82.30
2017-11-05T03:47:21.155Z,82.10
2017-11-05T03:50:18.098Z,81.52
2017-11-05T04:09:25.475Z,80.48
2017-11-05T04:12:22.423Z,80.91
2017-11-05T04:14:48.237Z,80.68
2017-11-05T04:34:24.134Z,84.15
2017-11-05T04:53:34.857Z,85.77
2017-11-05T04:59:21.767Z,86.21
2017-11-05T05:02:11.294Z,86.11
2017-11-05T05:21:23.184Z,84.49
2017-11-05T05:41:00.140Z,85.70
2017-11-05T05:43:25.967Z,85.85
2017-11-05T05:46:15.935Z,86.28
2017-11-05T05:49:13.712Z,86.51
2017-11-05T06:05:05.073Z,88.25
2017-11-05T06:07:54.270Z,88.35
2017-11-05T06:10:51.429Z,88.21
2017-11-05T06:26:42.608Z,88.53
2017-11-05T06:29:31.949Z,88.81
2017-11-05T06:48:45.501Z,89.22
2017-11-05T07:08:34.468Z,88.90
2017-11-05T07:11:00.254Z,89.08
2017-11-05T07:30:36.479Z,89.72
2017-11-05T07:49:53.539Z,90.27
2017-11-05T08:09:12.008Z,89.39
2017-11-05T08:28:29.509Z,90.21
2017-11-05T08:47:47.110Z,92.55
2017-11-05T09:07:03.762Z,91.18
2017-11-05T09:10:01.644Z,91.37
2017-11-05T09:29:13.279Z,89.88
2017-11-05T09:51:40.204Z,90.74
2017-11-05T10:10:53.704Z,89.85
2017-11-05T10:30:31.256Z,89.45
2017-11-05T10:49:49.635Z,89.61
2017-11-05T11:09:08.718Z,89.54
2017-11-05T11:28:27.516Z,89.27
2017-11-05T11:31:24.766Z,89.51
2017-11-05T11:40:33.584Z,89.63
2017-11-05T11:43:23.461Z,89.54
2017-11-05T11:46:20.888Z,90.31
2017-11-05T11:49:18.960Z,89.00
2017-11-05T12:02:16.095Z,88.77
2017-11-05T12:21:53.327Z,89.62
2017-11-05T12:41:02.528Z,90.73
2017-11-05T13:00:11.431Z,89.44
2017-11-05T13:19:28.207Z,90.52
2017-11-05T13:41:54.921Z,89.00
2017-11-05T14:01:05.164Z,88.29
2017-11-05T14:20:17.617Z,86.91
2017-11-05T14:39:29.415Z,86.50
2017-11-05T14:59:04.599Z,85.55
2017-11-05T15:21:32.242Z,85.85
2017-11-05T15:23:58.041Z,84.79
2017-11-05T15:43:34.212Z,84.91
2017-11-05T16:02:44.437Z,84.01
2017-11-05T16:21:56.956Z,83.78
2017-11-05T16:41:08.204Z,82.80
2017-11-05T16:44:05.368Z,83.54
2017-11-05T17:05:14.912Z,82.84
2017-11-05T17:07:40.684Z,82.39
2017-11-05T17:10:06.486Z,82.47
2017-11-05T17:12:32.264Z,82.21
2017-11-05T17:14:58.860Z,82.53
2017-11-05T17:17:24.664Z,82.68
2017-11-05T17:19:50.439Z,83.48
2017-11-05T17:22:16.283Z,83.06
2017-11-05T17:24:42.067Z,83.16
2017-11-05T17:27:07.857Z,83.29
2017-11-05T17:29:33.656Z,82.44
2017-11-05T17:31:59.430Z,82.33
2017-11-05T17:34:25.216Z,82.57
2017-11-05T17:36:50.999Z,82.62
2017-11-05T17:39:16.777Z,82.60
2017-11-05T17:41:42.526Z,81.97
2017-11-05T17:44:08.315Z,82.40
2017-11-05T17:46:34.092Z,82.00
2017-11-05T17:48:59.840Z,81.47
2017-11-05T17:51:25.596Z,82.71
2017-11-05T17:53:51.356Z,82.66
2017-11-05T17:56:17.138Z,82.55
2017-11-05T17:58:42.907Z,82.74
2017-11-05T18:01:08.685Z,82.58
2017-11-05T18:03:34.508Z,82.52
2017-11-05T18:06:00.301Z,82.51
2017-11-05T18:08:26.067Z,82.37
2017-11-05T18:10:51.829Z,83.17
2017-11-05T18:13:17.603Z,82.42
2017-11-05T18:15:44.963Z,82.83
2017-11-05T18:18:10.775Z,82.37
2017-11-05T18:20:36.593Z,81.74
2017-11-05T18:23:02.348Z,82.44
2017-11-05T18:25:28.131Z,82.42
2017-11-05T18:27:53.893Z,82.16
2017-11-05T18:30:19.667Z,81.63
2017-11-05T18:32:45.467Z,81.59
2017-11-05T18:35:11.279Z,81.71
2017-11-05T18:37:37.077Z,81.60
2017-11-05T18:40:02.890Z,81.73
2017-11-05T18:42:28.671Z,82.44
2017-11-05T18:44:54.435Z,82.38
2017-11-05T18:47:20.197Z,82.72
2017-11-05T18:49:45.993Z,82.57
2017-11-05T18:52:11.779Z,82.37
2017-11-05T18:54:37.535Z,82.61
2017-11-05T18:57:03.344Z,82.96
2017-11-05T18:59:29.139Z,83.46
2017-11-05T19:04:45.013Z,83.12
2017-11-05T19:07:10.837Z,82.92
2017-11-05T19:09:36.662Z,82.44
2017-11-05T19:12:02.439Z,82.34
2017-11-05T19:14:28.272Z,82.77
2017-11-05T19:16:54.138Z,84.13
2017-11-05T19:19:20.059Z,83.66
2017-11-05T19:21:45.817Z,83.89
2017-11-05T19:24:11.607Z,83.62
2017-11-05T19:26:37.374Z,84.25
2017-11-05T19:29:03.150Z,83.46
2017-11-05T19:31:28.957Z,83.34
2017-11-05T19:33:54.714Z,83.24
2017-11-05T19:36:20.508Z,83.37
2017-11-05T19:38:46.304Z,83.52
2017-11-05T19:41:12.075Z,83.40
2017-11-05T19:43:37.841Z,83.87
2017-11-05T19:46:03.617Z,83.51
2017-11-05T19:48:29.407Z,83.82
2017-11-05T19:50:55.187Z,83.44
2017-11-05T19:53:20.968Z,83.16
2017-11-05T19:55:46.787Z,83.00
2017-11-05T19:58:12.561Z,83.58
2017-11-05T20:00:38.373Z,83.99
2017-11-05T20:03:04.151Z,83.70
2017-11-05T20:05:29.991Z,83.72
2017-11-05T20:07:55.768Z,83.57
2017-11-05T20:10:21.539Z,83.28
2017-11-05T20:12:47.304Z,83.61
2017-11-05T20:15:13.068Z,83.38
2017-11-05T20:17:38.838Z,83.75
2017-11-05T20:20:04.615Z,84.17
2017-11-05T20:22:30.383Z,83.86
2017-11-05T20:24:56.179Z,83.99
2017-11-05T20:27:21.935Z,83.97
2017-11-05T20:29:47.699Z,84.20
2017-11-05T20:32:13.487Z,83.99
2017-11-05T20:34:39.252Z,83.64
2017-11-05T20:37:05.051Z,83.41
2017-11-05T20:39:30.815Z,83.59
2017-11-05T20:41:56.583Z,83.26
2017-11-05T20:44:22.386Z,83.34
2017-11-05T20:46:48.135Z,83.18
2017-11-05T20:49:13.883Z,84.07
2017-11-05T20:51:39.714Z,83.93
2017-11-05T20:54:05.488Z,83.65
2017-11-05T20:56:31.250Z,83.29
2017-11-05T20:58:57.014Z,83.15
2017-11-05T21:01:22.791Z,83.57
2017-11-05T21:03:48.548Z,83.42
2017-11-05T21:06:14.341Z,83.17
2017-11-05T21:08:40.099Z,84.32
2017-11-05T21:11:05.932Z,84.61
2017-11-05T21:13:31.808Z,84.87
2017-11-05T21:15:57.547Z,84.34
2017-11-05T21:18:23.347Z,84.41
2017-11-05T21:20:49.123Z,84.27
2017-11-05T21:23:14.894Z,84.31
2017-11-05T21:25:40.684Z,83.79
2017-11-05T21:28:06.492Z,83.29
2017-11-05T21:30:32.260Z,82.89
2017-11-05T21:32:58.051Z,82.23
2017-11-05T21:35:23.855Z,83.07
2017-11-05T21:37:49.640Z,83.04
2017-11-05T21:40:15.419Z,83.38
2017-11-05T21:42:41.187Z,83.30
2017-11-05T21:45:06.980Z,83.40
2017-11-05T21:47:32.746Z,83.94
2017-11-05T21:49:58.534Z,84.09
2017-11-05T21:52:24.304Z,84.06
2017-11-05T21:54:50.107Z,83.88
2017-11-05T21:57:15.888Z,83.57
2017-11-05T21:59:41.670Z,84.24
2017-11-05T22:02:07.468Z,84.27
2017-11-05T22:04:33.227Z,85.37
2017-11-05T22:06:58.987Z,85.23
2017-11-05T22:09:24.773Z,84.99
2017-11-05T22:11:50.523Z,84.54
2017-11-05T22:14:16.328Z,84.47
2017-11-05T22:16:42.136Z,84.23
2017-11-05T22:19:07.920Z,84.99
2017-11-05T22:21:33.677Z,85.82
2017-11-05T22:23:59.512Z,85.44
2017-11-05T22:26:25.346Z,86.05
2017-11-05T22:28:51.131Z,85.82
2017-11-05T22:31:16.936Z,85.76
2017-11-05T22:33:42.779Z,85.70
2017-11-05T22:36:08.589Z,84.79
2017-11-05T22:38:34.360Z,84.87
2017-11-05T22:41:00.135Z,85.78
2017-11-05T22:43:25.996Z,85.81
2017-11-05T22:45:51.780Z,85.39
2017-11-05T22:48:17.573Z,85.42
2017-11-05T22:50:43.343Z,85.15
2017-11-05T22:53:09.109Z,85.44
2017-11-05T22:55:34.876Z,85.42
2017-11-05T22:58:00.671Z,85.85
2017-11-05T23:00:26.416Z,85.46
2017-11-05T23:02:52.223Z,85.97
2017-11-05T23:05:18.027Z,85.71
2017-11-05T23:07:43.791Z,84.95
2017-11-05T23:10:09.565Z,85.19
2017-11-05T23:12:35.360Z,85.47
2017-11-05T23:15:01.123Z,85.54
2017-11-05T23:17:26.908Z,85.74
2017-11-05T23:19:52.676Z,85.84
2017-11-05T23:22:18.476Z,85.81
2017-11-05T23:24:44.230Z,85.98
2017-11-05T23:27:10.007Z,85.66
2017-11-05T23:29:35.807Z,85.52
2017-11-05T23:32:01.580Z,85.86
2017-11-05T23:34:27.331Z,85.52
2017-11-05T23:36:53.127Z,85.81
2017-11-05T23:39:18.903Z,86.01
2017-11-05T23:41:44.713Z,86.03
2017-11-05T23:44:10.482Z,86.24
2017-11-05T23:46:36.260Z,86.71
2017-11-05T23:49:02.060Z,86.66
2017-11-05T23:51:27.844Z,86.53
2017-11-05T23:53:53.631Z,86.40
2017-11-05T23:56:19.430Z,86.37
2017-11-05T23:58:45.168Z,86.30
